Kvitbjoern — LM9158 — position and weather

sailwx.info

Track history (hours):
 
Tides and Currents Weather Stations Pressure Air Temp Water Temp Dewpoint Dewpoint Depression Visibility Wind Speed Wind Dir Waves Ship Positions

Kvitbjoern

Last reported at 2016-Jun-27 03:30 UTC. Time now 2016-Jun-27 15:02 UTC.
Position N 66°22' E 012°21'.

Length 10 m.

Type: Fishing. MMSI: 257454420.

Date/timePositionNaut miles runAvg speedWind from/ knotsBaromVisibWave heightAir tempDewpointWater temp
2016-Jun-27 03:30N 66°22' E 012°21'3 3.6
2016-Jun-27 02:33N 66°24' E 012°28'1 1.0
2016-Jun-27 01:32N 66°24' E 012°26'1 1.0
2016-Jun-27 00:31N 66°24' E 012°23'0 0.0
2016-Jun-26 23:24N 66°24' E 012°23'1 1.3
2016-Jun-26 22:30N 66°25' E 012°23'0 0.3
2016-Jun-26 21:17N 66°25' E 012°23'0 0.3
2016-Jun-26 20:11N 66°25' E 012°24'1 0.8
2016-Jun-26 19:33N 66°24' E 012°24'1 0.9
2016-Jun-26 18:31N 66°24' E 012°23'1 0.8
2016-Jun-26 17:26N 66°24' E 012°21'1 0.6
2016-Jun-26 16:31N 66°23' E 012°21'1 0.1
2016-Jun-26 00:32N 66°23' E 012°23'1 1.1
2016-Jun-25 23:31N 66°24' E 012°22'1 0.8
2016-Jun-25 22:33N 66°23' E 012°21'3 0.6
2016-Jun-25 17:04N 66°20' E 012°20'2 3.5
2016-Jun-25 16:29N 66°22' E 012°22'1 0.0
2016-Jun-24 19:31N 66°22' E 012°21'2 0.7
2016-Jun-24 17:03N 66°22' E 012°17'0 0.1
2016-Jun-24 16:33N 66°21' E 012°17'4 3.8
2016-Jun-24 15:33N 66°24' E 012°24'2 1.6
2016-Jun-24 14:12N 66°25' E 012°29'1 0.8
2016-Jun-24 12:30N 66°24' E 012°27'1 0.8
2016-Jun-24 11:28N 66°23' E 012°26'2 2.3
2016-Jun-24 10:33N 66°22' E 012°21'0 0.0
2016-Jun-23 19:11N 66°22' E 012°21'0 0.0
2016-Jun-23 18:29N 66°22' E 012°21'2 2.1
2016-Jun-23 17:30N 66°23' E 012°26'2 2.3
2016-Jun-23 16:31N 66°25' E 012°29'1 1.0
2016-Jun-23 15:28N 66°25' E 012°26'1 0.9
2016-Jun-23 14:20N 66°25' E 012°29'3 3.9
2016-Jun-23 13:34N 66°24' E 012°22'0 0.1
2016-Jun-23 12:18N 66°24' E 012°22'2 2.1
2016-Jun-23 11:33N 66°22' E 012°21'0 0.0
2016-Jun-22 23:29N 66°22' E 012°21'2 2.2
2016-Jun-22 22:26N 66°25' E 012°22'1 0.6
2016-Jun-22 21:24N 66°25' E 012°23'1 0.5
2016-Jun-22 20:24N 66°25' E 012°24'0 0.5
2016-Jun-22 19:26N 66°25' E 012°23'2 2.2
2016-Jun-22 18:33N 66°23' E 012°23'1 0.2
2016-Jun-22 12:10N 66°22' E 012°21'1 0.0
2016-Jun-20 19:33N 66°23' E 012°23'2 0.6
2016-Jun-20 16:08N 66°25' E 012°26'0 0.6
2016-Jun-20 15:33N 66°25' E 012°27'2 1.8
2016-Jun-20 14:31N 66°25' E 012°23'0 0.1
2016-Jun-20 13:33N 66°25' E 012°23'1 0.6
2016-Jun-20 12:31N 66°25' E 012°24'0 0.1
2016-Jun-20 11:30N 66°25' E 012°24'0 0.0
2016-Jun-20 10:24N 66°25' E 012°24'0 0.3
2016-Jun-20 09:33N 66°25' E 012°24'3 2.7
2016-Jun-20 08:29N 66°22' E 012°22'  
Track history (hours):
 
Tides and Currents Weather Stations Pressure Air Temp Water Temp Dewpoint Dewpoint Depression Visibility Wind Speed Wind Dir Waves Ship Positions

Kvitbjoern

Last reported at 2016-Jun-27 03:30 UTC. Time now 2016-Jun-27 15:02 UTC.
Position N 66°22' E 012°21'.

Length 10 m.

Type: Fishing. MMSI: 257454420.

Date/timePositionNaut miles runAvg speedWind from/ knotsBaromVisibWave heightAir tempDewpointWater temp
2016-Jun-27 03:30N 66°22' E 012°21'3 3.6
2016-Jun-27 02:33N 66°24' E 012°28'1 1.0
2016-Jun-27 01:32N 66°24' E 012°26'1 1.0
2016-Jun-27 00:31N 66°24' E 012°23'0 0.0
2016-Jun-26 23:24N 66°24' E 012°23'1 1.3
2016-Jun-26 22:30N 66°25' E 012°23'0 0.3
2016-Jun-26 21:17N 66°25' E 012°23'0 0.3
2016-Jun-26 20:11N 66°25' E 012°24'1 0.8
2016-Jun-26 19:33N 66°24' E 012°24'1 0.9
2016-Jun-26 18:31N 66°24' E 012°23'1 0.8
2016-Jun-26 17:26N 66°24' E 012°21'1 0.6
2016-Jun-26 16:31N 66°23' E 012°21'1 0.1
2016-Jun-26 00:32N 66°23' E 012°23'1 1.1
2016-Jun-25 23:31N 66°24' E 012°22'1 0.8
2016-Jun-25 22:33N 66°23' E 012°21'3 0.6
2016-Jun-25 17:04N 66°20' E 012°20'2 3.5
2016-Jun-25 16:29N 66°22' E 012°22'1 0.0
2016-Jun-24 19:31N 66°22' E 012°21'2 0.7
2016-Jun-24 17:03N 66°22' E 012°17'0 0.1
2016-Jun-24 16:33N 66°21' E 012°17'4 3.8
2016-Jun-24 15:33N 66°24' E 012°24'2 1.6
2016-Jun-24 14:12N 66°25' E 012°29'1 0.8
2016-Jun-24 12:30N 66°24' E 012°27'1 0.8
2016-Jun-24 11:28N 66°23' E 012°26'2 2.3
2016-Jun-24 10:33N 66°22' E 012°21'0 0.0
2016-Jun-23 19:11N 66°22' E 012°21'0 0.0
2016-Jun-23 18:29N 66°22' E 012°21'2 2.1
2016-Jun-23 17:30N 66°23' E 012°26'2 2.3
2016-Jun-23 16:31N 66°25' E 012°29'1 1.0
2016-Jun-23 15:28N 66°25' E 012°26'1 0.9
2016-Jun-23 14:20N 66°25' E 012°29'3 3.9
2016-Jun-23 13:34N 66°24' E 012°22'0 0.1
2016-Jun-23 12:18N 66°24' E 012°22'2 2.1
2016-Jun-23 11:33N 66°22' E 012°21'0 0.0
2016-Jun-22 23:29N 66°22' E 012°21'2 2.2
2016-Jun-22 22:26N 66°25' E 012°22'1 0.6
2016-Jun-22 21:24N 66°25' E 012°23'1 0.5
2016-Jun-22 20:24N 66°25' E 012°24'0 0.5
2016-Jun-22 19:26N 66°25' E 012°23'2 2.2
2016-Jun-22 18:33N 66°23' E 012°23'1 0.2
2016-Jun-22 12:10N 66°22' E 012°21'1 0.0
2016-Jun-20 19:33N 66°23' E 012°23'2 0.6
2016-Jun-20 16:08N 66°25' E 012°26'0 0.6
2016-Jun-20 15:33N 66°25' E 012°27'2 1.8
2016-Jun-20 14:31N 66°25' E 012°23'0 0.1
2016-Jun-20 13:33N 66°25' E 012°23'1 0.6
2016-Jun-20 12:31N 66°25' E 012°24'0 0.1
2016-Jun-20 11:30N 66°25' E 012°24'0 0.0
2016-Jun-20 10:24N 66°25' E 012°24'0 0.3
2016-Jun-20 09:33N 66°25' E 012°24'3 2.7
2016-Jun-20 08:29N 66°22' E 012°22'  

Dump ship's entire track history